TimePDT,TemperatureF,Dew PointF,Humidity,Sea Level PressureIn,VisibilityMPH,Wind Direction,Wind SpeedMPH,Gust SpeedMPH,PrecipitationIn,Events,Conditions,WindDirDegrees,DateUTC
12:53 AM,59.0,55.9,90,29.95,10.0,Calm,Calm,-,N/A,,Clear,0,2013-09-01 07:53:00
1:53 AM,59.0,55.9,90,29.94,10.0,Calm,Calm,-,N/A,,Scattered Clouds,0,2013-09-01 08:53:00
2:53 AM,57.9,55.9,93,29.94,10.0,Calm,Calm,-,N/A,,Partly Cloudy,0,2013-09-01 09:53:00
3:53 AM,59.0,55.0,87,29.93,10.0,Calm,Calm,-,N/A,,Clear,0,2013-09-01 10:53:00
4:53 AM,57.9,55.0,90,29.93,10.0,Calm,Calm,-,N/A,,Clear,0,2013-09-01 11:53:00
5:53 AM,57.9,55.0,90,29.94,10.0,Calm,Calm,-,N/A,,Clear,0,2013-09-01 12:53:00
6:53 AM,57.0,54.0,89,29.94,10.0,Calm,Calm,-,N/A,,Clear,0,2013-09-01 13:53:00
7:53 AM,61.0,55.9,83,29.95,10.0,Calm,Calm,-,N/A,,Clear,0,2013-09-01 14:53:00
8:53 AM,66.9,55.9,68,29.96,10.0,Calm,Calm,-,N/A,,Partly Cloudy,0,2013-09-01 15:53:00
9:53 AM,70.0,57.0,63,29.95,10.0,Calm,Calm,-,N/A,,Clear,0,2013-09-01 16:53:00
10:53 AM,75.0,55.9,51,29.94,10.0,SSE,4.6,-,N/A,,Clear,150,2013-09-01 17:53:00
11:53 AM,78.1,55.0,45,29.93,10.0,SSW,8.1,-,N/A,,Clear,200,2013-09-01 18:53:00
12:53 PM,80.1,54.0,40,29.92,10.0,SSW,8.1,-,N/A,,Clear,200,2013-09-01 19:53:00
1:53 PM,81.0,52.0,36,29.91,10.0,SSW,9.2,-,N/A,,Clear,200,2013-09-01 20:53:00
2:53 PM,82.9,50.0,32,29.90,10.0,South,6.9,-,N/A,,Clear,180,2013-09-01 21:53:00
3:53 PM,84.0,51.1,32,29.89,10.0,South,9.2,-,N/A,,Clear,190,2013-09-01 22:53:00
4:53 PM,72.0,57.0,59,29.89,10.0,South,11.5,-,N/A,,Clear,170,2013-09-01 23:53:00
5:53 PM,66.9,55.9,68,29.90,10.0,SSE,6.9,-,N/A,,Clear,160,2013-09-02 00:53:00
6:53 PM,64.0,55.9,75,29.91,10.0,SSE,6.9,-,N/A,,Overcast,150,2013-09-02 01:53:00
7:53 PM,63.0,57.0,81,29.92,10.0,SE,6.9,-,N/A,,Overcast,130,2013-09-02 02:53:00
8:53 PM,63.0,57.9,84,29.93,10.0,ESE,5.8,-,N/A,,Clear,120,2013-09-02 03:53:00
9:53 PM,64.0,57.9,80,29.94,10.0,ENE,3.5,-,N/A,,Clear,70,2013-09-02 04:53:00
10:41 PM,64.4,59.0,83,29.94,10.0,ENE,5.8,-,N/A,,Mostly Cloudy,70,2013-09-02 05:41:00
10:53 PM,64.0,57.9,80,29.94,10.0,ENE,4.6,-,N/A,,Overcast,60,2013-09-02 05:53:00
11:20 PM,64.4,57.2,77,29.94,10.0,Calm,Calm,-,N/A,,Scattered Clouds,0,2013-09-02 06:20:00
11:53 PM,64.0,57.9,80,29.94,10.0,NNW,3.5,-,N/A,,Clear,340,2013-09-02 06:53:00